PAAQ METAR and TAF weather

Enter ICAO airport designator
Station Type Date Time Source
PAAQ METAR 2019/08/24 17:53 UTC NOAA

PAAQ 241753Z 00000KT 8SM FU FEW075 FEW200 11/07 A2967 RMK AO2 SLP049 T01060072 10106 20056 51016


Station Type Date Time Source
PAAQ Decoded METAR 2019/08/24 17:53 UTC NOAA

Station name not available
Aug 24, 2019 - 01:53 PM EDT / 2019.08.24 1753 UTC
Wind: Calm:0
Visibility: 8 mile(s):0
Sky conditions: mostly clear
Weather: smoke
Temperature: 51.1 F (10.6 C)
Dew Point: 45.0 F (7.2 C)
Relative Humidity: 79%
Pressure (altimeter): 29.67 in. Hg (1004 hPa)
Pressure tendency: 0.05 inches (1.6 hPa) higher than three hours ago
ob: PAAQ 241753Z 00000KT 8SM FU FEW075 FEW200 11/07 A2967 RMK AO2 SLP049 T01060072 10106 20056 51016
cycle: 18

Station Type Date Time Source
PAAQ TAF 2019/08/24 18:34 UTC NOAA

TAF PAAQ 241732Z 2418/2518 VRB06KT 6SM FU FEW200

Example: see airport list